createdAt,value
2023-04-01T00:01:31.221Z,5.03
2023-04-01T00:03:58.441Z,3.20
2023-04-01T00:06:25.788Z,3.47
2023-04-01T00:08:54.052Z,3.83
2023-04-01T00:11:22.380Z,4.53
2023-04-01T00:13:49.723Z,5.28
2023-04-01T00:16:22.053Z,3.05
2023-04-01T00:18:49.963Z,6.03
2023-04-01T00:21:17.106Z,3.60
2023-04-01T00:23:44.716Z,3.25
2023-04-01T00:26:13.150Z,6.00
2023-04-01T00:28:40.959Z,3.38
2023-04-01T00:31:08.621Z,4.40
2023-04-01T00:33:36.613Z,2.75
2023-04-01T00:36:07.677Z,4.63
2023-04-01T00:38:34.842Z,5.95
2023-04-01T00:41:01.888Z,3.35
2023-04-01T00:43:28.963Z,4.40
2023-04-01T00:45:55.992Z,4.90
2023-04-01T00:48:34.887Z,5.50
2023-04-01T00:51:01.899Z,3.13
2023-04-01T00:53:31.530Z,7.18
2023-04-01T00:56:01.927Z,6.75
2023-04-01T00:58:31.256Z,5.60
2023-04-01T01:01:00.246Z,5.20
2023-04-01T01:03:27.465Z,5.72
2023-04-01T01:06:04.029Z,4.57
2023-04-01T01:08:39.072Z,4.10
2023-04-01T01:11:07.633Z,4.25
2023-04-01T01:13:37.866Z,4.50
2023-04-01T01:16:20.396Z,4.53
2023-04-01T01:18:47.499Z,6.32
2023-04-01T01:21:33.044Z,5.75
2023-04-01T01:24:04.269Z,4.75
2023-04-01T01:26:34.074Z,5.10
2023-04-01T01:29:20.057Z,6.82
2023-04-01T01:31:56.086Z,5.55
2023-04-01T01:34:35.410Z,4.50
2023-04-01T01:37:05.118Z,4.00
2023-04-01T01:39:33.036Z,7.85
2023-04-01T01:42:02.752Z,3.92
2023-04-01T01:44:31.040Z,5.18
2023-04-01T01:46:58.781Z,6.50
2023-04-01T01:49:26.319Z,4.03
2023-04-01T01:51:53.623Z,6.78
2023-04-01T01:54:20.855Z,4.63
2023-04-01T01:56:50.383Z,5.47
2023-04-01T01:59:17.831Z,4.50
2023-04-01T02:01:47.307Z,8.10
2023-04-01T02:04:16.319Z,3.28
2023-04-01T02:06:46.366Z,6.53
2023-04-01T02:09:13.488Z,6.05
2023-04-01T02:11:40.593Z,4.32
2023-04-01T02:14:11.541Z,5.30
2023-04-01T02:16:57.335Z,4.45
2023-04-01T02:19:26.940Z,4.78
2023-04-01T02:21:57.030Z,3.67
2023-04-01T02:24:25.316Z,4.35
2023-04-01T02:26:53.347Z,5.22
2023-04-01T02:29:22.136Z,5.68
2023-04-01T02:31:49.642Z,6.35
2023-04-01T02:34:16.865Z,4.05
2023-04-01T02:36:44.147Z,5.00
2023-04-01T02:39:11.317Z,5.75
2023-04-01T02:41:45.101Z,4.60
2023-04-01T02:44:13.341Z,2.95
2023-04-01T02:46:40.822Z,6.07
2023-04-01T02:49:07.930Z,4.97
2023-04-01T02:51:35.386Z,6.72
2023-04-01T02:54:02.502Z,3.95
2023-04-01T02:56:29.765Z,5.13
2023-04-01T02:58:57.247Z,4.80
2023-04-01T03:01:26.095Z,4.18
2023-04-01T03:03:53.208Z,5.28
2023-04-01T03:06:20.299Z,4.53
2023-04-01T03:08:47.428Z,4.93
2023-04-01T03:11:14.588Z,6.57
2023-04-01T03:13:41.669Z,4.65
2023-04-01T03:16:08.839Z,4.50
2023-04-01T03:18:35.972Z,5.45
2023-04-01T03:21:16.099Z,3.78
2023-04-01T03:23:43.089Z,4.82
2023-04-01T03:26:10.129Z,4.22
2023-04-01T03:28:37.200Z,5.57
2023-04-01T03:31:04.490Z,4.70
2023-04-01T03:33:31.631Z,4.50
2023-04-01T03:35:58.793Z,4.75
2023-04-01T03:38:25.914Z,4.30
2023-04-01T03:40:52.978Z,4.55
2023-04-01T03:43:20.027Z,5.43
2023-04-01T03:45:48.178Z,5.10
2023-04-01T03:48:15.882Z,4.72
2023-04-01T03:50:42.983Z,6.28
2023-04-01T03:53:10.315Z,5.65
2023-04-01T03:55:37.959Z,5.85
2023-04-01T03:58:05.693Z,4.60
2023-04-01T04:00:32.785Z,5.70
2023-04-01T04:03:00.299Z,4.60
2023-04-01T04:05:27.903Z,5.88
2023-04-01T04:07:54.961Z,6.70
2023-04-01T04:10:23.886Z,5.60
2023-04-01T04:12:51.267Z,5.22
2023-04-01T04:15:18.366Z,5.20
2023-04-01T04:17:48.561Z,7.38
2023-04-01T04:20:16.197Z,6.20
2023-04-01T04:22:43.230Z,5.65
2023-04-01T04:25:10.580Z,7.00
2023-04-01T04:27:37.754Z,5.80
2023-04-01T04:30:04.969Z,5.72
2023-04-01T04:32:32.062Z,7.78
2023-04-01T04:34:59.206Z,6.80
2023-04-01T04:37:26.798Z,5.93
2023-04-01T04:39:53.924Z,6.05
2023-04-01T04:42:21.078Z,6.13
2023-04-01T04:44:48.199Z,5.32
2023-04-01T04:47:15.402Z,6.05
2023-04-01T04:49:42.433Z,7.55
2023-04-01T04:52:09.598Z,5.32
2023-04-01T04:54:36.736Z,6.60
2023-04-01T04:57:04.011Z,6.55
2023-04-01T04:59:31.954Z,5.93
2023-04-01T05:01:59.021Z,5.28
2023-04-01T05:04:26.093Z,6.93
2023-04-01T05:06:53.175Z,7.15
2023-04-01T05:09:20.437Z,6.22
2023-04-01T05:11:47.519Z,5.22
2023-04-01T05:14:15.756Z,7.28
2023-04-01T05:16:42.884Z,6.30
2023-04-01T05:19:10.014Z,6.85
2023-04-01T05:21:37.041Z,7.38
2023-04-01T05:24:04.194Z,7.28
2023-04-01T05:26:31.561Z,9.15
2023-04-01T05:28:58.611Z,6.38
2023-04-01T05:31:26.636Z,5.05
2023-04-01T05:33:55.006Z,6.07
2023-04-01T05:36:22.183Z,7.68
2023-04-01T05:38:49.875Z,6.68
2023-04-01T05:41:17.003Z,7.22
2023-04-01T05:43:44.165Z,5.72
2023-04-01T05:46:11.277Z,6.60
2023-04-01T05:48:38.539Z,7.47
2023-04-01T05:51:08.292Z,6.07
2023-04-01T05:53:36.357Z,6.50
2023-04-01T05:56:04.260Z,4.95
2023-04-01T05:58:31.684Z,6.85
2023-04-01T06:01:09.469Z,6.57
2023-04-01T06:03:40.010Z,5.45
2023-04-01T06:06:16.979Z,6.18
2023-04-01T06:08:44.479Z,5.78
2023-04-01T06:11:17.337Z,4.60
2023-04-01T06:14:09.314Z,4.45
2023-04-01T06:16:39.267Z,5.55
2023-04-01T06:19:16.607Z,5.03
2023-04-01T06:21:52.945Z,4.13
2023-04-01T06:24:38.865Z,4.00
2023-04-01T06:27:24.665Z,3.90
2023-04-01T06:29:54.834Z,4.55
2023-04-01T06:32:22.142Z,3.67
2023-04-01T06:35:08.287Z,2.97
2023-04-01T06:37:47.625Z,1.98
2023-04-01T06:40:32.326Z,2.45
2023-04-01T06:43:08.431Z,2.28
2023-04-01T06:45:38.302Z,1.88
2023-04-01T06:48:18.063Z,2.83
2023-04-01T06:50:50.732Z,2.60
2023-04-01T06:53:30.466Z,2.88
2023-04-01T06:56:01.281Z,3.42
2023-04-01T06:58:31.170Z,3.78
2023-04-01T07:00:59.857Z,4.25
2023-04-01T07:03:38.138Z,3.58
2023-04-01T07:06:06.476Z,4.20
2023-04-01T07:08:37.456Z,7.88
2023-04-01T07:11:06.032Z,6.00
2023-04-01T07:13:36.507Z,6.22
2023-04-01T07:16:06.352Z,6.55
2023-04-01T07:18:44.666Z,7.85
2023-04-01T07:21:17.074Z,8.75
2023-04-01T07:23:46.529Z,8.13
2023-04-01T07:26:18.565Z,12.68
2023-04-01T07:28:45.637Z,9.00
2023-04-01T07:31:20.344Z,8.10
2023-04-01T07:33:53.237Z,8.32
2023-04-01T07:36:23.110Z,7.82
2023-04-01T07:38:53.407Z,6.03
2023-04-01T07:41:29.396Z,6.90
2023-04-01T07:43:59.502Z,6.45
2023-04-01T07:46:31.614Z,7.60
2023-04-01T07:49:21.822Z,5.38
2023-04-01T07:52:00.701Z,7.20
2023-04-01T07:54:32.046Z,6.50
2023-04-01T07:57:10.142Z,9.02
2023-04-01T07:59:55.924Z,7.45
2023-04-01T08:02:42.427Z,8.75
2023-04-01T08:05:19.023Z,6.53
2023-04-01T08:07:55.265Z,6.20
2023-04-01T08:10:25.281Z,7.32
2023-04-01T08:13:02.027Z,7.50
2023-04-01T08:15:30.870Z,6.72
2023-04-01T08:18:13.426Z,7.57
2023-04-01T08:20:55.426Z,6.60
2023-04-01T08:23:38.191Z,6.75
2023-04-01T08:26:14.447Z,6.65
2023-04-01T08:28:46.000Z,6.43
2023-04-01T08:31:18.775Z,5.95
2023-04-01T08:33:47.414Z,8.70
2023-04-01T08:36:23.252Z,6.43
2023-04-01T08:38:50.344Z,7.57
2023-04-01T08:41:17.351Z,6.80
2023-04-01T08:43:44.364Z,8.50
2023-04-01T08:46:20.669Z,6.70
2023-04-01T08:49:08.062Z,5.80
2023-04-01T08:51:53.894Z,5.38
2023-04-01T08:54:20.949Z,6.35
2023-04-01T08:57:06.094Z,6.05
2023-04-01T08:59:36.277Z,8.18
2023-04-01T09:02:06.168Z,6.45
2023-04-01T09:04:51.845Z,5.22
2023-04-01T09:07:23.420Z,5.97
2023-04-01T09:10:09.101Z,4.32
2023-04-01T09:12:41.601Z,5.22
2023-04-01T09:15:08.634Z,5.47
2023-04-01T09:17:35.831Z,4.30
2023-04-01T09:20:28.564Z,5.60
2023-04-01T09:23:14.626Z,4.30
2023-04-01T09:25:53.428Z,4.65
2023-04-01T09:28:21.829Z,6.72
2023-04-01T09:31:02.245Z,3.15
2023-04-01T09:33:42.495Z,3.65
2023-04-01T09:36:15.539Z,3.83
2023-04-01T09:39:02.863Z,2.55
2023-04-01T09:41:33.934Z,2.53
2023-04-01T09:44:17.115Z,2.72
2023-04-01T09:46:53.625Z,2.22
2023-04-01T09:49:46.973Z,2.58
2023-04-01T09:52:26.383Z,1.80
2023-04-01T09:54:56.424Z,2.75
2023-04-01T09:57:42.172Z,1.85
2023-04-01T10:00:28.300Z,2.40
2023-04-01T10:03:04.242Z,1.90
2023-04-01T10:05:49.976Z,1.77
2023-04-01T10:08:35.803Z,1.58
2023-04-01T10:11:41.487Z,1.80
2023-04-01T10:14:11.464Z,3.08
2023-04-01T10:16:56.863Z,4.10
2023-04-01T10:19:30.096Z,2.72
2023-04-01T10:22:06.333Z,2.85
2023-04-01T10:24:51.912Z,2.33
2023-04-01T10:27:37.902Z,5.35
2023-04-01T10:30:23.877Z,3.20
2023-04-01T10:32:51.069Z,4.72
2023-04-01T10:35:37.039Z,3.83
2023-04-01T10:38:17.802Z,3.08
2023-04-01T10:40:44.821Z,4.38
2023-04-01T10:43:34.091Z,2.95
2023-04-01T10:46:01.624Z,2.78
2023-04-01T10:48:47.586Z,3.33
2023-04-01T10:51:31.743Z,2.70
2023-04-01T10:54:01.778Z,4.03
2023-04-01T10:56:41.798Z,2.67
2023-04-01T10:59:09.053Z,2.95
2023-04-01T11:01:39.266Z,3.15
2023-04-01T11:04:22.654Z,2.95
2023-04-01T11:07:08.414Z,3.63
2023-04-01T11:09:38.502Z,2.83
2023-04-01T11:12:24.227Z,4.13
2023-04-01T11:15:10.019Z,2.78
2023-04-01T11:18:03.974Z,4.45
2023-04-01T11:20:49.829Z,3.78
2023-04-01T11:23:23.113Z,2.38
2023-04-01T11:25:58.620Z,3.63
2023-04-01T11:28:42.594Z,3.80
2023-04-01T11:31:12.517Z,3.70
2023-04-01T11:33:44.814Z,3.40
2023-04-01T11:36:14.871Z,4.57
2023-04-01T11:38:52.004Z,4.32
2023-04-01T11:41:34.057Z,3.55
2023-04-01T11:46:42.343Z,4.75
2023-04-01T11:49:20.563Z,3.58
2023-04-01T11:52:11.201Z,3.55
2023-04-01T11:54:47.305Z,4.13
2023-04-01T11:57:23.703Z,6.72
2023-04-01T12:00:00.008Z,4.30
2023-04-01T12:02:44.625Z,6.85
2023-04-01T12:05:24.834Z,3.53
2023-04-01T12:07:59.560Z,4.18
2023-04-01T12:10:40.837Z,4.40
2023-04-01T12:13:10.885Z,3.17
2023-04-01T12:15:49.908Z,3.90
2023-04-01T12:18:27.774Z,5.85
2023-04-01T12:21:04.368Z,5.28
2023-04-01T12:23:44.237Z,3.90
2023-04-01T12:26:17.404Z,3.70
2023-04-01T12:28:47.467Z,4.05
2023-04-01T12:31:17.352Z,4.55
2023-04-01T12:34:02.106Z,4.15
2023-04-01T12:36:49.938Z,4.10
2023-04-01T12:39:34.614Z,5.72
2023-04-01T12:42:09.131Z,5.72
2023-04-01T12:45:02.775Z,4.10
2023-04-01T12:47:44.377Z,3.17
2023-04-01T12:50:11.539Z,3.30
2023-04-01T12:52:38.622Z,4.90
2023-04-01T12:55:20.814Z,3.67
2023-04-01T12:58:07.825Z,3.83
2023-04-01T13:00:45.337Z,3.50
2023-04-01T13:03:31.298Z,3.08
2023-04-01T13:06:11.090Z,3.10
2023-04-01T13:08:42.720Z,4.50
2023-04-01T13:11:34.323Z,3.45
2023-04-01T13:14:30.826Z,2.85
2023-04-01T13:17:01.812Z,2.90
2023-04-01T13:19:37.803Z,2.53
2023-04-01T13:22:04.828Z,3.22
2023-04-01T13:24:38.043Z,3.78
2023-04-01T13:27:31.148Z,2.47
2023-04-01T13:30:04.888Z,3.47
2023-04-01T13:32:54.682Z,2.70
2023-04-01T13:35:25.552Z,4.15
2023-04-01T13:38:04.928Z,3.30
2023-04-01T13:40:41.399Z,3.17
2023-04-01T13:43:35.063Z,4.60
2023-04-01T13:46:19.697Z,5.35
2023-04-01T13:48:50.776Z,3.05
2023-04-01T13:51:24.895Z,3.63
2023-04-01T13:54:01.376Z,3.72
2023-04-01T13:56:47.098Z,1.92
2023-04-01T13:59:29.532Z,3.60
2023-04-01T14:01:56.644Z,2.92
2023-04-01T14:04:32.162Z,3.17
2023-04-01T14:07:02.910Z,3.15
2023-04-01T14:09:38.831Z,2.90
2023-04-01T14:12:14.899Z,3.05
2023-04-01T14:14:57.103Z,1.75
2023-04-01T14:17:24.194Z,2.38
2023-04-01T14:19:51.349Z,3.35
2023-04-01T14:22:37.287Z,9.27
2023-04-01T14:25:23.267Z,3.83
2023-04-01T14:27:56.747Z,2.60
2023-04-01T14:30:37.465Z,4.07
2023-04-01T14:33:28.297Z,3.60
2023-04-01T14:36:05.919Z,2.97
2023-04-01T14:38:35.963Z,4.65
2023-04-01T14:41:02.987Z,2.80
2023-04-01T14:43:50.928Z,4.20
2023-04-01T14:46:29.133Z,3.15
2023-04-01T14:49:15.558Z,3.65
2023-04-01T14:51:42.776Z,3.80
2023-04-01T14:54:12.858Z,3.75
2023-04-01T14:56:44.258Z,3.00
2023-04-01T14:59:31.622Z,3.30
2023-04-01T15:02:01.792Z,4.35
2023-04-01T15:04:34.645Z,4.75
2023-04-01T15:07:20.544Z,3.60
2023-04-01T15:09:53.466Z,4.15
2023-04-01T15:12:31.377Z,4.13
2023-04-01T15:14:58.401Z,3.65
2023-04-01T15:17:44.311Z,3.53
2023-04-01T15:20:35.634Z,2.97
2023-04-01T15:23:15.064Z,3.85
2023-04-01T15:26:01.380Z,2.40
2023-04-01T15:28:28.422Z,2.83
2023-04-01T15:31:03.081Z,2.72
2023-04-01T15:33:36.102Z,5.55
2023-04-01T15:36:03.196Z,2.60
2023-04-01T15:38:36.598Z,3.00
2023-04-01T15:41:16.523Z,2.97
2023-04-01T15:43:49.690Z,3.47
2023-04-01T15:46:26.465Z,2.55
2023-04-01T15:48:53.524Z,1.77
2023-04-01T15:51:23.467Z,2.15
2023-04-01T15:53:50.452Z,3.08
2023-04-01T15:56:27.379Z,6.68
2023-04-01T15:59:09.947Z,2.72
2023-04-01T16:01:43.886Z,3.50
2023-04-01T16:04:26.355Z,2.90
2023-04-01T16:07:05.652Z,4.15
2023-04-01T16:09:51.751Z,4.57
2023-04-01T16:12:18.800Z,3.42
2023-04-01T16:14:45.847Z,3.22
2023-04-01T16:17:28.618Z,2.45
2023-04-01T16:19:58.902Z,2.58
2023-04-01T16:22:33.321Z,2.80
2023-04-01T16:25:16.622Z,2.70
2023-04-01T16:27:46.743Z,2.75
2023-04-01T16:30:29.619Z,2.70
2023-04-01T16:33:03.170Z,4.50
2023-04-01T16:35:36.259Z,2.20
2023-04-01T16:38:29.704Z,2.42
2023-04-01T16:41:13.756Z,3.15
2023-04-01T16:43:55.474Z,2.17
2023-04-01T16:46:41.524Z,1.90
2023-04-01T16:49:14.624Z,2.85
2023-04-01T16:51:55.928Z,2.20
2023-04-01T16:54:22.954Z,3.45
2023-04-01T16:56:57.416Z,2.15
2023-04-01T16:59:28.709Z,2.97
2023-04-01T17:02:01.790Z,2.33
2023-04-01T17:04:34.806Z,2.65
2023-04-01T17:07:01.942Z,3.40
2023-04-01T17:09:34.853Z,3.17
2023-04-01T17:12:07.679Z,2.55
2023-04-01T17:14:42.590Z,2.88
2023-04-01T17:17:27.899Z,1.95
2023-04-01T17:19:54.913Z,3.03
2023-04-01T17:22:31.238Z,2.40
2023-04-01T17:25:14.684Z,2.42
2023-04-01T17:27:52.360Z,4.05
2023-04-01T17:30:25.653Z,3.25
2023-04-01T17:33:04.098Z,2.88
2023-04-01T17:35:37.171Z,2.65
2023-04-01T17:38:23.216Z,3.33
2023-04-01T17:40:51.768Z,4.15
2023-04-01T17:43:31.850Z,3.88
2023-04-01T17:46:02.746Z,3.42
2023-04-01T17:48:56.310Z,3.55
2023-04-01T17:51:31.734Z,2.83
2023-04-01T17:53:58.753Z,3.10
2023-04-01T17:56:40.455Z,4.18
2023-04-01T17:59:19.723Z,4.50
2023-04-01T18:01:51.316Z,3.58
2023-04-01T18:04:37.267Z,5.10
2023-04-01T18:07:23.250Z,4.03
2023-04-01T18:10:08.973Z,4.78
2023-04-01T18:12:44.929Z,6.82
2023-04-01T18:15:18.013Z,5.68
2023-04-01T18:18:05.791Z,7.15
2023-04-01T18:20:33.503Z,4.93
2023-04-01T18:23:00.822Z,5.60
2023-04-01T18:25:37.900Z,6.00
2023-04-01T18:28:25.744Z,6.35
2023-04-01T18:30:57.903Z,7.35
2023-04-01T18:33:31.345Z,5.18
2023-04-01T18:35:58.425Z,7.03
2023-04-01T18:38:34.155Z,3.97
2023-04-01T18:41:19.902Z,4.85
2023-04-01T18:43:51.317Z,5.65
2023-04-01T18:46:24.423Z,5.50
2023-04-01T18:48:51.445Z,8.40
2023-04-01T18:51:18.639Z,4.30
2023-04-01T18:53:48.526Z,4.78
2023-04-01T18:56:17.739Z,4.22
2023-04-01T18:59:07.794Z,4.78
2023-04-01T19:01:44.652Z,4.43
2023-04-01T19:04:11.771Z,4.80
2023-04-01T19:06:56.554Z,4.30
2023-04-01T19:09:23.728Z,7.13
2023-04-01T19:11:59.162Z,5.30
2023-04-01T19:14:34.581Z,4.78
2023-04-01T19:17:01.614Z,6.35
2023-04-01T19:19:48.203Z,6.15
2023-04-01T19:22:34.038Z,5.03
2023-04-01T19:25:10.377Z,4.88
2023-04-01T19:27:45.518Z,5.72
2023-04-01T19:30:18.882Z,7.63
2023-04-01T19:32:53.966Z,7.78
2023-04-01T19:35:28.062Z,6.40
2023-04-01T19:38:13.962Z,5.78
2023-04-01T19:40:55.748Z,8.50
2023-04-01T19:43:25.739Z,7.28
2023-04-01T19:46:13.171Z,7.38
2023-04-01T19:48:46.367Z,6.70
2023-04-01T19:51:25.021Z,7.47
2023-04-01T19:54:05.342Z,7.47
2023-04-01T19:56:37.719Z,9.40
2023-04-01T19:59:07.939Z,7.13
2023-04-01T20:01:45.172Z,8.02
2023-04-01T20:04:16.433Z,9.75
2023-04-01T20:07:02.485Z,9.85
2023-04-01T20:09:41.760Z,7.65
2023-04-01T20:12:14.307Z,9.43
2023-04-01T20:14:50.687Z,7.32
2023-04-01T20:17:20.708Z,8.20
2023-04-01T20:19:59.772Z,9.10
2023-04-01T20:22:45.408Z,7.25
2023-04-01T20:25:26.556Z,11.02
2023-04-01T20:27:53.567Z,7.88
2023-04-01T20:30:29.154Z,7.82
2023-04-01T20:33:08.438Z,8.02
2023-04-01T20:35:51.869Z,9.77
2023-04-01T20:38:27.896Z,7.65
2023-04-01T20:41:01.588Z,7.40
2023-04-01T20:43:44.703Z,9.15
2023-04-01T20:46:22.367Z,9.43
2023-04-01T20:49:01.217Z,7.15
2023-04-01T20:51:40.539Z,7.93
2023-04-01T20:54:16.113Z,8.68
2023-04-01T20:56:49.270Z,7.90
2023-04-01T20:59:25.464Z,10.25
2023-04-01T21:01:52.813Z,7.93
2023-04-01T21:04:27.015Z,9.27
2023-04-01T21:06:54.543Z,11.13
2023-04-01T21:09:27.716Z,8.10
2023-04-01T21:11:54.768Z,12.38
2023-04-01T21:14:59.798Z,8.00
2023-04-01T21:17:35.549Z,11.65
2023-04-01T21:20:17.823Z,9.75
2023-04-01T21:25:30.312Z,10.88
2023-04-01T21:28:06.506Z,9.77
2023-04-01T21:30:45.639Z,9.63
2023-04-01T21:33:12.685Z,9.82
2023-04-01T21:36:00.969Z,7.28
2023-04-01T21:38:37.184Z,11.95
2023-04-01T21:41:12.981Z,8.35
2023-04-01T21:43:40.048Z,13.85
2023-04-01T21:46:26.032Z,10.30
2023-04-01T21:48:53.043Z,13.45
2023-04-01T21:51:56.241Z,10.63
2023-04-01T21:54:52.528Z,14.68
2023-04-01T21:57:28.773Z,9.63
2023-04-01T22:00:06.885Z,12.15
2023-04-01T22:02:59.450Z,10.95
2023-04-01T22:05:38.976Z,9.55
2023-04-01T22:08:06.016Z,7.93
2023-04-01T22:10:51.667Z,8.13
2023-04-01T22:13:25.976Z,9.93
2023-04-01T22:16:11.913Z,9.90
2023-04-01T22:18:53.520Z,8.88
2023-04-01T22:21:24.534Z,14.85
2023-04-01T22:23:57.161Z,10.40
2023-04-01T22:26:27.819Z,11.63
2023-04-01T22:29:04.413Z,6.53
2023-04-01T22:31:54.558Z,11.30
2023-04-01T22:34:29.431Z,10.98
2023-04-01T22:37:15.644Z,9.45
2023-04-01T22:39:54.643Z,9.57
2023-04-01T22:42:39.506Z,8.95
2023-04-01T22:45:25.310Z,8.70
2023-04-01T22:47:58.216Z,14.20
2023-04-01T22:50:28.921Z,9.00
2023-04-01T22:53:01.757Z,8.88
2023-04-01T22:55:34.716Z,8.85
2023-04-01T22:58:04.651Z,8.07
2023-04-01T23:00:41.857Z,8.25
2023-04-01T23:03:23.294Z,8.80
2023-04-01T23:05:58.156Z,9.27
2023-04-01T23:08:40.812Z,7.53
2023-04-01T23:11:11.972Z,11.07
2023-04-01T23:13:49.301Z,8.97
2023-04-01T23:16:17.291Z,9.90
2023-04-01T23:18:52.292Z,7.00
2023-04-01T23:21:40.937Z,8.73
2023-04-01T23:24:17.120Z,7.43
2023-04-01T23:27:01.148Z,13.82
2023-04-01T23:29:28.832Z,9.38
2023-04-01T23:32:03.105Z,9.05
2023-04-01T23:34:32.152Z,8.32
2023-04-01T23:37:20.146Z,10.23
2023-04-01T23:39:48.281Z,6.38
2023-04-01T23:42:25.995Z,6.95
2023-04-01T23:44:54.800Z,14.50
2023-04-01T23:47:35.594Z,9.40
2023-04-01T23:50:04.939Z,6.65
2023-04-01T23:52:33.124Z,10.15
2023-04-01T23:55:04.126Z,10.02
2023-04-01T23:57:35.569Z,9.80
